sensor_id;sensor_type;location;lat;lon;timestamp;P1;durP1;ratioP1;P2;durP2;ratioP2
3433;SDS011;1730;41.932;25.548;2023-07-22T00:01:22;7.70;;;5.50;;
3433;SDS011;1730;41.932;25.548;2023-07-22T00:03:48;10.30;;;5.70;;
3433;SDS011;1730;41.932;25.548;2023-07-22T00:06:13;5.90;;;5.30;;
3433;SDS011;1730;41.932;25.548;2023-07-22T00:08:39;6.57;;;4.63;;
3433;SDS011;1730;41.932;25.548;2023-07-22T00:11:04;7.13;;;5.10;;
3433;SDS011;1730;41.932;25.548;2023-07-22T00:13:30;6.77;;;4.83;;
3433;SDS011;1730;41.932;25.548;2023-07-22T00:15:56;9.50;;;4.90;;
3433;SDS011;1730;41.932;25.548;2023-07-22T00:18:24;9.40;;;4.50;;
3433;SDS011;1730;41.932;25.548;2023-07-22T00:20:52;8.70;;;4.87;;
3433;SDS011;1730;41.932;25.548;2023-07-22T00:23:18;5.53;;;5.07;;
3433;SDS011;1730;41.932;25.548;2023-07-22T00:25:45;6.63;;;4.53;;
3433;SDS011;1730;41.932;25.548;2023-07-22T00:28:11;7.93;;;5.80;;
3433;SDS011;1730;41.932;25.548;2023-07-22T00:30:37;6.30;;;5.03;;
3433;SDS011;1730;41.932;25.548;2023-07-22T00:33:03;10.30;;;5.30;;
3433;SDS011;1730;41.932;25.548;2023-07-22T00:35:28;5.47;;;4.93;;
3433;SDS011;1730;41.932;25.548;2023-07-22T00:37:54;5.63;;;5.13;;
3433;SDS011;1730;41.932;25.548;2023-07-22T00:40:19;10.23;;;4.93;;
3433;SDS011;1730;41.932;25.548;2023-07-22T00:42:45;5.37;;;5.03;;
3433;SDS011;1730;41.932;25.548;2023-07-22T00:45:10;7.63;;;5.87;;
3433;SDS011;1730;41.932;25.548;2023-07-22T00:47:37;5.77;;;5.17;;
3433;SDS011;1730;41.932;25.548;2023-07-22T00:50:05;5.43;;;4.93;;
3433;SDS011;1730;41.932;25.548;2023-07-22T00:52:35;6.47;;;5.30;;
3433;SDS011;1730;41.932;25.548;2023-07-22T00:55:02;5.70;;;5.00;;
3433;SDS011;1730;41.932;25.548;2023-07-22T00:57:30;4.97;;;4.57;;
3433;SDS011;1730;41.932;25.548;2023-07-22T00:59:56;6.40;;;5.90;;
3433;SDS011;1730;41.932;25.548;2023-07-22T01:02:21;7.90;;;5.30;;
3433;SDS011;1730;41.932;25.548;2023-07-22T01:04:48;9.50;;;5.27;;
3433;SDS011;1730;41.932;25.548;2023-07-22T01:07:15;7.77;;;5.60;;
3433;SDS011;1730;41.932;25.548;2023-07-22T01:09:42;6.73;;;4.90;;
3433;SDS011;1730;41.932;25.548;2023-07-22T01:12:09;9.23;;;5.83;;
3433;SDS011;1730;41.932;25.548;2023-07-22T01:14:35;5.17;;;4.63;;
3433;SDS011;1730;41.932;25.548;2023-07-22T01:17:02;11.13;;;5.30;;
3433;SDS011;1730;41.932;25.548;2023-07-22T01:19:31;7.00;;;5.30;;
3433;SDS011;1730;41.932;25.548;2023-07-22T01:21:59;5.37;;;4.87;;
3433;SDS011;1730;41.932;25.548;2023-07-22T01:24:27;5.63;;;5.13;;
3433;SDS011;1730;41.932;25.548;2023-07-22T01:26:54;5.87;;;5.33;;
3433;SDS011;1730;41.932;25.548;2023-07-22T01:29:21;6.73;;;4.80;;
3433;SDS011;1730;41.932;25.548;2023-07-22T01:31:48;7.00;;;5.30;;
3433;SDS011;1730;41.932;25.548;2023-07-22T01:34:15;10.20;;;5.50;;
3433;SDS011;1730;41.932;25.548;2023-07-22T01:36:40;7.13;;;5.30;;
3433;SDS011;1730;41.932;25.548;2023-07-22T01:39:06;6.70;;;4.97;;
3433;SDS011;1730;41.932;25.548;2023-07-22T01:41:31;5.80;;;5.30;;
3433;SDS011;1730;41.932;25.548;2023-07-22T01:43:57;10.53;;;5.50;;
3433;SDS011;1730;41.932;25.548;2023-07-22T01:46:22;6.43;;;4.83;;
3433;SDS011;1730;41.932;25.548;2023-07-22T01:48:48;5.70;;;5.20;;
3433;SDS011;1730;41.932;25.548;2023-07-22T01:51:13;7.40;;;4.83;;
3433;SDS011;1730;41.932;25.548;2023-07-22T01:53:39;6.03;;;5.47;;
3433;SDS011;1730;41.932;25.548;2023-07-22T01:56:05;6.50;;;4.67;;
3433;SDS011;1730;41.932;25.548;2023-07-22T01:58:30;5.53;;;5.03;;
3433;SDS011;1730;41.932;25.548;2023-07-22T02:00:56;9.27;;;6.23;;
3433;SDS011;1730;41.932;25.548;2023-07-22T02:03:21;9.80;;;5.40;;
3433;SDS011;1730;41.932;25.548;2023-07-22T02:05:47;7.97;;;5.67;;
3433;SDS011;1730;41.932;25.548;2023-07-22T02:08:12;6.10;;;4.90;;
3433;SDS011;1730;41.932;25.548;2023-07-22T02:10:38;6.00;;;5.10;;
3433;SDS011;1730;41.932;25.548;2023-07-22T02:13:04;8.17;;;5.53;;
3433;SDS011;1730;41.932;25.548;2023-07-22T02:15:31;5.40;;;4.90;;
3433;SDS011;1730;41.932;25.548;2023-07-22T02:17:57;7.47;;;5.03;;
3433;SDS011;1730;41.932;25.548;2023-07-22T02:20:23;6.20;;;5.60;;
3433;SDS011;1730;41.932;25.548;2023-07-22T02:22:49;7.90;;;5.40;;
3433;SDS011;1730;41.932;25.548;2023-07-22T02:25:14;7.67;;;5.50;;
3433;SDS011;1730;41.932;25.548;2023-07-22T02:27:40;5.37;;;4.93;;
3433;SDS011;1730;41.932;25.548;2023-07-22T02:30:06;6.10;;;5.60;;
3433;SDS011;1730;41.932;25.548;2023-07-22T02:32:36;5.73;;;5.33;;
3433;SDS011;1730;41.932;25.548;2023-07-22T02:35:06;5.73;;;5.30;;
3433;SDS011;1730;41.932;25.548;2023-07-22T02:37:33;9.63;;;5.80;;
3433;SDS011;1730;41.932;25.548;2023-07-22T02:39:59;6.43;;;5.83;;
3433;SDS011;1730;41.932;25.548;2023-07-22T02:42:25;8.80;;;6.77;;
3433;SDS011;1730;41.932;25.548;2023-07-22T02:44:50;7.77;;;6.23;;
3433;SDS011;1730;41.932;25.548;2023-07-22T02:47:16;7.00;;;6.30;;
3433;SDS011;1730;41.932;25.548;2023-07-22T02:49:43;7.97;;;5.90;;
3433;SDS011;1730;41.932;25.548;2023-07-22T02:52:08;6.63;;;5.90;;
3433;SDS011;1730;41.932;25.548;2023-07-22T02:54:39;12.60;;;6.03;;
3433;SDS011;1730;41.932;25.548;2023-07-22T02:57:05;6.63;;;6.10;;
3433;SDS011;1730;41.932;25.548;2023-07-22T02:59:32;7.07;;;6.47;;
3433;SDS011;1730;41.932;25.548;2023-07-22T03:01:58;6.97;;;6.17;;
3433;SDS011;1730;41.932;25.548;2023-07-22T03:04:24;6.87;;;6.00;;
3433;SDS011;1730;41.932;25.548;2023-07-22T03:06:50;10.97;;;6.70;;
3433;SDS011;1730;41.932;25.548;2023-07-22T03:09:15;6.00;;;5.60;;
3433;SDS011;1730;41.932;25.548;2023-07-22T03:11:41;7.80;;;7.00;;
3433;SDS011;1730;41.932;25.548;2023-07-22T03:14:06;6.97;;;6.37;;
3433;SDS011;1730;41.932;25.548;2023-07-22T03:16:32;7.63;;;6.93;;
3433;SDS011;1730;41.932;25.548;2023-07-22T03:18:57;7.90;;;6.57;;
3433;SDS011;1730;41.932;25.548;2023-07-22T03:21:23;7.50;;;6.20;;
3433;SDS011;1730;41.932;25.548;2023-07-22T03:23:48;7.87;;;6.83;;
3433;SDS011;1730;41.932;25.548;2023-07-22T03:26:14;7.03;;;6.40;;
3433;SDS011;1730;41.932;25.548;2023-07-22T03:28:40;7.67;;;6.97;;
3433;SDS011;1730;41.932;25.548;2023-07-22T03:31:06;6.83;;;6.40;;
3433;SDS011;1730;41.932;25.548;2023-07-22T03:33:36;9.23;;;6.93;;
3433;SDS011;1730;41.932;25.548;2023-07-22T03:36:01;7.27;;;6.67;;
3433;SDS011;1730;41.932;25.548;2023-07-22T03:38:26;8.77;;;6.80;;
3433;SDS011;1730;41.932;25.548;2023-07-22T03:40:52;6.90;;;6.23;;
3433;SDS011;1730;41.932;25.548;2023-07-22T03:43:20;8.03;;;7.40;;
3433;SDS011;1730;41.932;25.548;2023-07-22T03:45:46;7.20;;;6.50;;
3433;SDS011;1730;41.932;25.548;2023-07-22T03:48:11;7.73;;;6.20;;
3433;SDS011;1730;41.932;25.548;2023-07-22T03:50:37;7.43;;;6.73;;
3433;SDS011;1730;41.932;25.548;2023-07-22T03:53:02;11.53;;;6.53;;
3433;SDS011;1730;41.932;25.548;2023-07-22T03:55:28;8.50;;;6.47;;
3433;SDS011;1730;41.932;25.548;2023-07-22T03:57:54;9.17;;;6.40;;
3433;SDS011;1730;41.932;25.548;2023-07-22T04:00:20;6.80;;;5.90;;
3433;SDS011;1730;41.932;25.548;2023-07-22T04:02:46;8.43;;;6.73;;
3433;SDS011;1730;41.932;25.548;2023-07-22T04:05:11;9.87;;;6.97;;
3433;SDS011;1730;41.932;25.548;2023-07-22T04:07:37;8.17;;;6.87;;
3433;SDS011;1730;41.932;25.548;2023-07-22T04:10:03;6.93;;;6.13;;
3433;SDS011;1730;41.932;25.548;2023-07-22T04:12:28;12.90;;;8.00;;
3433;SDS011;1730;41.932;25.548;2023-07-22T04:14:54;9.57;;;7.90;;
3433;SDS011;1730;41.932;25.548;2023-07-22T04:17:19;13.83;;;8.50;;
3433;SDS011;1730;41.932;25.548;2023-07-22T04:19:45;10.27;;;7.87;;
3433;SDS011;1730;41.932;25.548;2023-07-22T04:22:11;9.83;;;7.60;;
3433;SDS011;1730;41.932;25.548;2023-07-22T04:24:37;8.17;;;7.43;;
3433;SDS011;1730;41.932;25.548;2023-07-22T04:27:02;9.53;;;7.43;;
3433;SDS011;1730;41.932;25.548;2023-07-22T04:29:28;22.80;;;8.20;;
3433;SDS011;1730;41.932;25.548;2023-07-22T04:32:00;12.50;;;7.27;;
3433;SDS011;1730;41.932;25.548;2023-07-22T04:34:29;8.43;;;7.70;;
3433;SDS011;1730;41.932;25.548;2023-07-22T04:36:55;7.60;;;6.90;;
3433;SDS011;1730;41.932;25.548;2023-07-22T04:39:21;15.50;;;7.90;;
3433;SDS011;1730;41.932;25.548;2023-07-22T04:41:47;7.83;;;7.23;;
3433;SDS011;1730;41.932;25.548;2023-07-22T04:44:12;10.23;;;8.57;;
3433;SDS011;1730;41.932;25.548;2023-07-22T04:46:38;8.47;;;7.67;;
3433;SDS011;1730;41.932;25.548;2023-07-22T04:49:03;7.80;;;6.90;;
3433;SDS011;1730;41.932;25.548;2023-07-22T04:51:29;12.13;;;8.93;;
3433;SDS011;1730;41.932;25.548;2023-07-22T04:53:55;8.67;;;7.80;;
3433;SDS011;1730;41.932;25.548;2023-07-22T04:56:20;10.23;;;8.33;;
3433;SDS011;1730;41.932;25.548;2023-07-22T04:58:46;9.17;;;8.30;;
3433;SDS011;1730;41.932;25.548;2023-07-22T05:01:11;21.83;;;8.90;;
3433;SDS011;1730;41.932;25.548;2023-07-22T05:03:37;9.03;;;8.07;;
3433;SDS011;1730;41.932;25.548;2023-07-22T05:06:02;21.53;;;9.43;;
3433;SDS011;1730;41.932;25.548;2023-07-22T05:08:28;18.70;;;8.63;;
3433;SDS011;1730;41.932;25.548;2023-07-22T05:10:54;9.10;;;8.33;;
3433;SDS011;1730;41.932;25.548;2023-07-22T05:13:19;13.37;;;8.70;;
3433;SDS011;1730;41.932;25.548;2023-07-22T05:15:46;12.67;;;8.33;;
3433;SDS011;1730;41.932;25.548;2023-07-22T05:18:12;13.37;;;7.90;;
3433;SDS011;1730;41.932;25.548;2023-07-22T05:20:38;10.23;;;8.13;;
3433;SDS011;1730;41.932;25.548;2023-07-22T05:23:04;8.60;;;7.90;;
3433;SDS011;1730;41.932;25.548;2023-07-22T05:25:30;8.00;;;7.30;;
3433;SDS011;1730;41.932;25.548;2023-07-22T05:27:55;11.20;;;8.77;;
3433;SDS011;1730;41.932;25.548;2023-07-22T05:30:21;10.93;;;7.87;;
3433;SDS011;1730;41.932;25.548;2023-07-22T05:32:46;8.67;;;7.30;;
3433;SDS011;1730;41.932;25.548;2023-07-22T05:35:12;8.00;;;7.40;;
3433;SDS011;1730;41.932;25.548;2023-07-22T05:37:37;9.87;;;8.17;;
3433;SDS011;1730;41.932;25.548;2023-07-22T05:40:03;9.87;;;8.60;;
3433;SDS011;1730;41.932;25.548;2023-07-22T05:42:29;9.00;;;8.17;;
3433;SDS011;1730;41.932;25.548;2023-07-22T05:44:57;8.77;;;7.97;;
3433;SDS011;1730;41.932;25.548;2023-07-22T05:47:23;7.10;;;6.50;;
3433;SDS011;1730;41.932;25.548;2023-07-22T05:49:51;11.53;;;6.97;;
3433;SDS011;1730;41.932;25.548;2023-07-22T05:52:18;8.37;;;7.50;;
3433;SDS011;1730;41.932;25.548;2023-07-22T05:54:49;9.33;;;6.77;;
3433;SDS011;1730;41.932;25.548;2023-07-22T05:57:15;8.20;;;6.97;;
3433;SDS011;1730;41.932;25.548;2023-07-22T05:59:40;8.83;;;7.00;;
3433;SDS011;1730;41.932;25.548;2023-07-22T06:02:08;7.93;;;7.33;;
3433;SDS011;1730;41.932;25.548;2023-07-22T06:04:35;8.13;;;7.40;;
3433;SDS011;1730;41.932;25.548;2023-07-22T06:07:03;8.47;;;7.40;;
3433;SDS011;1730;41.932;25.548;2023-07-22T06:09:28;11.43;;;7.47;;
3433;SDS011;1730;41.932;25.548;2023-07-22T06:11:54;10.50;;;7.70;;
3433;SDS011;1730;41.932;25.548;2023-07-22T06:14:20;9.73;;;7.10;;
3433;SDS011;1730;41.932;25.548;2023-07-22T06:16:45;9.77;;;7.10;;
3433;SDS011;1730;41.932;25.548;2023-07-22T06:19:11;10.93;;;6.87;;
3433;SDS011;1730;41.932;25.548;2023-07-22T06:21:36;7.87;;;7.17;;
3433;SDS011;1730;41.932;25.548;2023-07-22T06:24:02;7.23;;;6.53;;
3433;SDS011;1730;41.932;25.548;2023-07-22T06:26:27;11.20;;;7.87;;
3433;SDS011;1730;41.932;25.548;2023-07-22T06:28:54;8.43;;;7.40;;
3433;SDS011;1730;41.932;25.548;2023-07-22T06:31:19;10.40;;;6.87;;
3433;SDS011;1730;41.932;25.548;2023-07-22T06:33:45;7.73;;;6.80;;
3433;SDS011;1730;41.932;25.548;2023-07-22T06:36:10;10.47;;;7.07;;
3433;SDS011;1730;41.932;25.548;2023-07-22T06:38:36;9.47;;;7.27;;
3433;SDS011;1730;41.932;25.548;2023-07-22T06:41:02;11.40;;;7.00;;
3433;SDS011;1730;41.932;25.548;2023-07-22T06:43:28;7.87;;;6.97;;
3433;SDS011;1730;41.932;25.548;2023-07-22T06:45:53;11.20;;;7.90;;
3433;SDS011;1730;41.932;25.548;2023-07-22T06:48:19;13.33;;;7.07;;
3433;SDS011;1730;41.932;25.548;2023-07-22T06:50:48;12.57;;;8.37;;
3433;SDS011;1730;41.932;25.548;2023-07-22T06:53:14;10.73;;;7.50;;
3433;SDS011;1730;41.932;25.548;2023-07-22T06:55:40;11.73;;;7.70;;
3433;SDS011;1730;41.932;25.548;2023-07-22T06:58:12;7.90;;;7.10;;
3433;SDS011;1730;41.932;25.548;2023-07-22T07:00:38;7.23;;;6.70;;
3433;SDS011;1730;41.932;25.548;2023-07-22T07:03:04;8.00;;;7.20;;
3433;SDS011;1730;41.932;25.548;2023-07-22T07:05:30;8.37;;;7.03;;
3433;SDS011;1730;41.932;25.548;2023-07-22T07:07:55;7.60;;;6.90;;
3433;SDS011;1730;41.932;25.548;2023-07-22T07:10:21;7.53;;;6.83;;
3433;SDS011;1730;41.932;25.548;2023-07-22T07:12:46;11.33;;;8.20;;
3433;SDS011;1730;41.932;25.548;2023-07-22T07:15:12;7.27;;;6.77;;
3433;SDS011;1730;41.932;25.548;2023-07-22T07:17:39;6.80;;;6.20;;
3433;SDS011;1730;41.932;25.548;2023-07-22T07:20:05;13.20;;;7.20;;
3433;SDS011;1730;41.932;25.548;2023-07-22T07:22:30;6.40;;;6.00;;
3433;SDS011;1730;41.932;25.548;2023-07-22T07:24:56;8.33;;;7.60;;
3433;SDS011;1730;41.932;25.548;2023-07-22T07:27:21;9.57;;;7.00;;
3433;SDS011;1730;41.932;25.548;2023-07-22T07:29:47;6.97;;;6.33;;
3433;SDS011;1730;41.932;25.548;2023-07-22T07:32:12;9.10;;;6.97;;
3433;SDS011;1730;41.932;25.548;2023-07-22T07:34:39;6.80;;;6.30;;
3433;SDS011;1730;41.932;25.548;2023-07-22T07:37:05;11.70;;;6.77;;
3433;SDS011;1730;41.932;25.548;2023-07-22T07:39:30;10.47;;;6.17;;
3433;SDS011;1730;41.932;25.548;2023-07-22T07:41:58;7.63;;;6.87;;
3433;SDS011;1730;41.932;25.548;2023-07-22T07:44:23;11.57;;;6.70;;
3433;SDS011;1730;41.932;25.548;2023-07-22T07:46:49;7.10;;;6.60;;
3433;SDS011;1730;41.932;25.548;2023-07-22T07:49:14;14.70;;;7.97;;
3433;SDS011;1730;41.932;25.548;2023-07-22T07:51:41;13.23;;;7.20;;
3433;SDS011;1730;41.932;25.548;2023-07-22T07:54:07;8.47;;;7.40;;
3433;SDS011;1730;41.932;25.548;2023-07-22T07:56:33;7.87;;;6.30;;
3433;SDS011;1730;41.932;25.548;2023-07-22T07:58:58;13.73;;;8.60;;
3433;SDS011;1730;41.932;25.548;2023-07-22T08:01:24;8.30;;;7.33;;
3433;SDS011;1730;41.932;25.548;2023-07-22T08:03:49;10.80;;;7.50;;
3433;SDS011;1730;41.932;25.548;2023-07-22T08:06:15;7.47;;;6.53;;
3433;SDS011;1730;41.932;25.548;2023-07-22T08:08:41;7.73;;;7.00;;
3433;SDS011;1730;41.932;25.548;2023-07-22T08:11:11;12.70;;;6.90;;
3433;SDS011;1730;41.932;25.548;2023-07-22T08:13:38;7.40;;;6.70;;
3433;SDS011;1730;41.932;25.548;2023-07-22T08:16:05;7.63;;;7.03;;
3433;SDS011;1730;41.932;25.548;2023-07-22T08:18:32;7.87;;;7.27;;
3433;SDS011;1730;41.932;25.548;2023-07-22T08:20:59;10.27;;;6.63;;
3433;SDS011;1730;41.932;25.548;2023-07-22T08:23:24;11.13;;;6.90;;
3433;SDS011;1730;41.932;25.548;2023-07-22T08:25:50;11.50;;;7.20;;
3433;SDS011;1730;41.932;25.548;2023-07-22T08:28:16;7.90;;;7.30;;
3433;SDS011;1730;41.932;25.548;2023-07-22T08:30:42;11.10;;;7.17;;
3433;SDS011;1730;41.932;25.548;2023-07-22T08:33:10;7.97;;;7.07;;
3433;SDS011;1730;41.932;25.548;2023-07-22T08:35:38;11.63;;;7.73;;
3433;SDS011;1730;41.932;25.548;2023-07-22T08:38:04;11.33;;;8.27;;
3433;SDS011;1730;41.932;25.548;2023-07-22T08:40:35;8.60;;;7.13;;
3433;SDS011;1730;41.932;25.548;2023-07-22T08:43:02;11.17;;;7.20;;
3433;SDS011;1730;41.932;25.548;2023-07-22T08:45:30;9.57;;;7.33;;
3433;SDS011;1730;41.932;25.548;2023-07-22T08:48:02;10.90;;;6.70;;
3433;SDS011;1730;41.932;25.548;2023-07-22T08:50:41;9.80;;;6.77;;
3433;SDS011;1730;41.932;25.548;2023-07-22T08:53:15;8.40;;;6.70;;
3433;SDS011;1730;41.932;25.548;2023-07-22T08:55:41;8.27;;;7.47;;
3433;SDS011;1730;41.932;25.548;2023-07-22T08:58:08;9.53;;;7.70;;
3433;SDS011;1730;41.932;25.548;2023-07-22T09:00:34;11.33;;;7.23;;
3433;SDS011;1730;41.932;25.548;2023-07-22T09:03:01;12.83;;;8.20;;
3433;SDS011;1730;41.932;25.548;2023-07-22T09:05:27;8.20;;;7.47;;
3433;SDS011;1730;41.932;25.548;2023-07-22T09:07:54;7.87;;;7.17;;
3433;SDS011;1730;41.932;25.548;2023-07-22T09:10:21;20.77;;;7.90;;
3433;SDS011;1730;41.932;25.548;2023-07-22T09:12:50;7.93;;;7.13;;
3433;SDS011;1730;41.932;25.548;2023-07-22T09:15:16;8.20;;;6.90;;
3433;SDS011;1730;41.932;25.548;2023-07-22T09:17:42;10.30;;;8.00;;
3433;SDS011;1730;41.932;25.548;2023-07-22T09:20:08;8.40;;;7.70;;
3433;SDS011;1730;41.932;25.548;2023-07-22T09:22:37;8.47;;;7.63;;
3433;SDS011;1730;41.932;25.548;2023-07-22T09:25:12;12.23;;;8.20;;
3433;SDS011;1730;41.932;25.548;2023-07-22T09:27:40;9.70;;;8.50;;
3433;SDS011;1730;41.932;25.548;2023-07-22T09:30:19;8.43;;;7.40;;
3433;SDS011;1730;41.932;25.548;2023-07-22T09:32:46;17.17;;;8.30;;
3433;SDS011;1730;41.932;25.548;2023-07-22T09:35:11;10.63;;;8.00;;
3433;SDS011;1730;41.932;25.548;2023-07-22T09:37:38;11.83;;;7.60;;
3433;SDS011;1730;41.932;25.548;2023-07-22T09:40:13;10.17;;;7.70;;
3433;SDS011;1730;41.932;25.548;2023-07-22T09:42:42;10.17;;;7.70;;
3433;SDS011;1730;41.932;25.548;2023-07-22T09:45:12;8.17;;;7.13;;
3433;SDS011;1730;41.932;25.548;2023-07-22T09:47:41;8.20;;;7.43;;
3433;SDS011;1730;41.932;25.548;2023-07-22T09:50:15;8.87;;;8.23;;
3433;SDS011;1730;41.932;25.548;2023-07-22T09:52:49;8.83;;;7.53;;
3433;SDS011;1730;41.932;25.548;2023-07-22T09:55:16;11.80;;;8.30;;
3433;SDS011;1730;41.932;25.548;2023-07-22T09:57:44;8.43;;;7.63;;
3433;SDS011;1730;41.932;25.548;2023-07-22T10:00:11;8.90;;;7.83;;
3433;SDS011;1730;41.932;25.548;2023-07-22T10:02:42;14.57;;;9.33;;
3433;SDS011;1730;41.932;25.548;2023-07-22T10:05:13;9.60;;;7.60;;
3433;SDS011;1730;41.932;25.548;2023-07-22T10:07:42;7.50;;;6.90;;
3433;SDS011;1730;41.932;25.548;2023-07-22T10:10:11;7.90;;;7.20;;
3433;SDS011;1730;41.932;25.548;2023-07-22T10:12:39;11.77;;;8.20;;
3433;SDS011;1730;41.932;25.548;2023-07-22T10:15:05;9.73;;;7.30;;
3433;SDS011;1730;41.932;25.548;2023-07-22T10:17:32;10.77;;;7.30;;
3433;SDS011;1730;41.932;25.548;2023-07-22T10:19:59;11.47;;;7.73;;
3433;SDS011;1730;41.932;25.548;2023-07-22T10:22:25;10.53;;;7.30;;
3433;SDS011;1730;41.932;25.548;2023-07-22T10:24:53;9.50;;;7.20;;
3433;SDS011;1730;41.932;25.548;2023-07-22T10:27:20;8.37;;;7.47;;
3433;SDS011;1730;41.932;25.548;2023-07-22T10:29:47;9.87;;;8.50;;
3433;SDS011;1730;41.932;25.548;2023-07-22T10:32:13;7.60;;;7.00;;
3433;SDS011;1730;41.932;25.548;2023-07-22T10:34:42;7.10;;;6.50;;
3433;SDS011;1730;41.932;25.548;2023-07-22T10:37:09;14.30;;;8.00;;
3433;SDS011;1730;41.932;25.548;2023-07-22T10:39:36;23.50;;;8.20;;
3433;SDS011;1730;41.932;25.548;2023-07-22T10:42:02;10.57;;;8.17;;
3433;SDS011;1730;41.932;25.548;2023-07-22T10:44:32;12.53;;;9.87;;
3433;SDS011;1730;41.932;25.548;2023-07-22T10:47:00;13.17;;;7.80;;
3433;SDS011;1730;41.932;25.548;2023-07-22T10:49:42;9.90;;;8.03;;
3433;SDS011;1730;41.932;25.548;2023-07-22T10:52:12;11.23;;;8.00;;
3433;SDS011;1730;41.932;25.548;2023-07-22T10:54:40;10.53;;;8.93;;
3433;SDS011;1730;41.932;25.548;2023-07-22T10:59:40;18.37;;;7.87;;
3433;SDS011;1730;41.932;25.548;2023-07-22T11:02:24;8.37;;;7.60;;
3433;SDS011;1730;41.932;25.548;2023-07-22T11:04:50;8.07;;;7.23;;
3433;SDS011;1730;41.932;25.548;2023-07-22T11:07:15;13.33;;;6.63;;
3433;SDS011;1730;41.932;25.548;2023-07-22T11:09:55;18.10;;;7.77;;
3433;SDS011;1730;41.932;25.548;2023-07-22T11:12:21;12.20;;;9.03;;
3433;SDS011;1730;41.932;25.548;2023-07-22T11:15:01;15.27;;;8.33;;
3433;SDS011;1730;41.932;25.548;2023-07-22T11:17:28;9.47;;;7.60;;
3433;SDS011;1730;41.932;25.548;2023-07-22T11:19:56;10.00;;;7.50;;
3433;SDS011;1730;41.932;25.548;2023-07-22T11:22:22;10.63;;;7.23;;
3433;SDS011;1730;41.932;25.548;2023-07-22T11:24:48;12.00;;;8.20;;
3433;SDS011;1730;41.932;25.548;2023-07-22T11:27:13;11.20;;;7.17;;
3433;SDS011;1730;41.932;25.548;2023-07-22T11:29:39;10.00;;;6.90;;
3433;SDS011;1730;41.932;25.548;2023-07-22T11:32:05;7.50;;;6.20;;
3433;SDS011;1730;41.932;25.548;2023-07-22T11:34:40;13.83;;;6.67;;
3433;SDS011;1730;41.932;25.548;2023-07-22T11:37:05;11.50;;;7.63;;
3433;SDS011;1730;41.932;25.548;2023-07-22T11:39:31;7.93;;;7.13;;
3433;SDS011;1730;41.932;25.548;2023-07-22T11:41:59;8.70;;;6.90;;
3433;SDS011;1730;41.932;25.548;2023-07-22T11:44:27;11.50;;;6.47;;
3433;SDS011;1730;41.932;25.548;2023-07-22T11:46:57;17.03;;;7.30;;
3433;SDS011;1730;41.932;25.548;2023-07-22T11:51:50;10.77;;;6.70;;
3433;SDS011;1730;41.932;25.548;2023-07-22T11:54:20;14.50;;;6.57;;
3433;SDS011;1730;41.932;25.548;2023-07-22T11:56:46;9.60;;;6.73;;
3433;SDS011;1730;41.932;25.548;2023-07-22T11:59:12;7.77;;;6.87;;
3433;SDS011;1730;41.932;25.548;2023-07-22T12:01:38;13.50;;;7.07;;
3433;SDS011;1730;41.932;25.548;2023-07-22T12:04:08;8.87;;;6.40;;
3433;SDS011;1730;41.932;25.548;2023-07-22T12:06:36;10.60;;;6.40;;
3433;SDS011;1730;41.932;25.548;2023-07-22T12:09:02;14.77;;;7.20;;
3433;SDS011;1730;41.932;25.548;2023-07-22T12:11:27;10.73;;;7.03;;
3433;SDS011;1730;41.932;25.548;2023-07-22T12:14:04;14.43;;;6.97;;
3433;SDS011;1730;41.932;25.548;2023-07-22T12:16:34;15.47;;;7.17;;
3433;SDS011;1730;41.932;25.548;2023-07-22T12:19:02;16.23;;;6.83;;
3433;SDS011;1730;41.932;25.548;2023-07-22T12:21:28;14.07;;;7.20;;
3433;SDS011;1730;41.932;25.548;2023-07-22T12:23:53;16.87;;;6.43;;
3433;SDS011;1730;41.932;25.548;2023-07-22T12:26:19;13.43;;;6.50;;
3433;SDS011;1730;41.932;25.548;2023-07-22T12:28:45;11.33;;;6.00;;
3433;SDS011;1730;41.932;25.548;2023-07-22T12:31:11;18.03;;;6.53;;
3433;SDS011;1730;41.932;25.548;2023-07-22T12:33:36;13.67;;;7.33;;
3433;SDS011;1730;41.932;25.548;2023-07-22T12:36:02;15.17;;;6.67;;
3433;SDS011;1730;41.932;25.548;2023-07-22T12:38:28;9.00;;;6.47;;
3433;SDS011;1730;41.932;25.548;2023-07-22T12:40:53;10.63;;;6.43;;
3433;SDS011;1730;41.932;25.548;2023-07-22T12:43:19;26.73;;;7.40;;
3433;SDS011;1730;41.932;25.548;2023-07-22T12:45:44;15.13;;;6.97;;
3433;SDS011;1730;41.932;25.548;2023-07-22T12:48:09;19.30;;;7.20;;
3433;SDS011;1730;41.932;25.548;2023-07-22T12:50:35;14.70;;;6.30;;
3433;SDS011;1730;41.932;25.548;2023-07-22T12:53:01;11.20;;;7.00;;
3433;SDS011;1730;41.932;25.548;2023-07-22T12:55:28;13.47;;;7.07;;
3433;SDS011;1730;41.932;25.548;2023-07-22T12:57:53;16.07;;;6.70;;
3433;SDS011;1730;41.932;25.548;2023-07-22T13:00:20;18.47;;;7.90;;
3433;SDS011;1730;41.932;25.548;2023-07-22T13:02:46;13.20;;;6.87;;
3433;SDS011;1730;41.932;25.548;2023-07-22T13:05:12;15.60;;;6.00;;
3433;SDS011;1730;41.932;25.548;2023-07-22T13:07:38;15.17;;;6.20;;
3433;SDS011;1730;41.932;25.548;2023-07-22T13:10:04;9.57;;;6.20;;
3433;SDS011;1730;41.932;25.548;2023-07-22T13:12:36;12.60;;;6.20;;
3433;SDS011;1730;41.932;25.548;2023-07-22T13:15:03;14.30;;;5.90;;
3433;SDS011;1730;41.932;25.548;2023-07-22T13:17:29;19.40;;;6.23;;
3433;SDS011;1730;41.932;25.548;2023-07-22T13:19:55;15.40;;;6.17;;
3433;SDS011;1730;41.932;25.548;2023-07-22T13:22:20;19.27;;;6.37;;
3433;SDS011;1730;41.932;25.548;2023-07-22T13:24:46;23.53;;;6.57;;
3433;SDS011;1730;41.932;25.548;2023-07-22T13:27:11;11.77;;;5.97;;
3433;SDS011;1730;41.932;25.548;2023-07-22T13:29:37;16.47;;;6.07;;
3433;SDS011;1730;41.932;25.548;2023-07-22T13:32:03;17.00;;;6.80;;
3433;SDS011;1730;41.932;25.548;2023-07-22T13:34:29;18.60;;;5.90;;
3433;SDS011;1730;41.932;25.548;2023-07-22T13:36:55;12.37;;;5.97;;
3433;SDS011;1730;41.932;25.548;2023-07-22T13:39:20;15.87;;;7.00;;
3433;SDS011;1730;41.932;25.548;2023-07-22T13:41:46;17.23;;;7.07;;
3433;SDS011;1730;41.932;25.548;2023-07-22T13:44:12;14.47;;;6.30;;
3433;SDS011;1730;41.932;25.548;2023-07-22T13:46:38;17.50;;;5.80;;
3433;SDS011;1730;41.932;25.548;2023-07-22T13:49:03;21.03;;;6.37;;
3433;SDS011;1730;41.932;25.548;2023-07-22T13:51:29;15.20;;;6.60;;
3433;SDS011;1730;41.932;25.548;2023-07-22T13:53:54;19.43;;;6.60;;
3433;SDS011;1730;41.932;25.548;2023-07-22T13:56:20;13.80;;;6.70;;
3433;SDS011;1730;41.932;25.548;2023-07-22T13:58:46;19.17;;;6.40;;
3433;SDS011;1730;41.932;25.548;2023-07-22T14:01:12;15.70;;;6.20;;
3433;SDS011;1730;41.932;25.548;2023-07-22T14:03:38;11.13;;;5.90;;
3433;SDS011;1730;41.932;25.548;2023-07-22T14:06:04;18.10;;;7.20;;
3433;SDS011;1730;41.932;25.548;2023-07-22T14:08:30;20.90;;;7.00;;
3433;SDS011;1730;41.932;25.548;2023-07-22T14:10:55;15.93;;;6.40;;
3433;SDS011;1730;41.932;25.548;2023-07-22T14:13:21;18.43;;;5.43;;
3433;SDS011;1730;41.932;25.548;2023-07-22T14:15:46;14.60;;;6.33;;
3433;SDS011;1730;41.932;25.548;2023-07-22T14:18:13;15.63;;;5.57;;
3433;SDS011;1730;41.932;25.548;2023-07-22T14:20:51;9.93;;;6.80;;
3433;SDS011;1730;41.932;25.548;2023-07-22T14:23:20;9.70;;;6.30;;
3433;SDS011;1730;41.932;25.548;2023-07-22T14:25:46;21.90;;;6.87;;
3433;SDS011;1730;41.932;25.548;2023-07-22T14:28:13;12.47;;;5.73;;
3433;SDS011;1730;41.932;25.548;2023-07-22T14:30:39;18.50;;;6.00;;
3433;SDS011;1730;41.932;25.548;2023-07-22T14:33:04;13.50;;;5.77;;
3433;SDS011;1730;41.932;25.548;2023-07-22T14:35:29;13.30;;;6.13;;
3433;SDS011;1730;41.932;25.548;2023-07-22T14:37:58;15.73;;;6.03;;
3433;SDS011;1730;41.932;25.548;2023-07-22T14:40:27;18.57;;;6.10;;
3433;SDS011;1730;41.932;25.548;2023-07-22T14:42:52;18.10;;;5.90;;
3433;SDS011;1730;41.932;25.548;2023-07-22T14:45:18;17.67;;;6.20;;
3433;SDS011;1730;41.932;25.548;2023-07-22T14:47:44;12.47;;;4.60;;
3433;SDS011;1730;41.932;25.548;2023-07-22T14:50:09;13.40;;;4.93;;
3433;SDS011;1730;41.932;25.548;2023-07-22T14:52:36;18.33;;;5.57;;
3433;SDS011;1730;41.932;25.548;2023-07-22T14:55:01;9.60;;;4.93;;
3433;SDS011;1730;41.932;25.548;2023-07-22T14:57:27;14.40;;;6.37;;